sensor_id;sensor_type;location;lat;lon;timestamp;P1;durP1;ratioP1;P2;durP2;ratioP2
17741;SDS011;8993;51.822;-2.268;2023-04-25T00:01:02;17.11;;;8.88;;
17741;SDS011;8993;51.822;-2.268;2023-04-25T00:06:08;20.51;;;9.22;;
17741;SDS011;8993;51.822;-2.268;2023-04-25T00:11:18;24.40;;;10.84;;
17741;SDS011;8993;51.822;-2.268;2023-04-25T00:16:18;28.66;;;11.33;;
17741;SDS011;8993;51.822;-2.268;2023-04-25T00:21:22;42.35;;;14.72;;
17741;SDS011;8993;51.822;-2.268;2023-04-25T00:26:27;41.56;;;14.10;;
17741;SDS011;8993;51.822;-2.268;2023-04-25T00:31:36;29.38;;;11.77;;
17741;SDS011;8993;51.822;-2.268;2023-04-25T00:36:38;31.18;;;12.10;;
17741;SDS011;8993;51.822;-2.268;2023-04-25T00:41:42;35.55;;;12.12;;
17741;SDS011;8993;51.822;-2.268;2023-04-25T00:46:47;38.76;;;13.43;;
17741;SDS011;8993;51.822;-2.268;2023-04-25T00:51:51;30.88;;;11.77;;
17741;SDS011;8993;51.822;-2.268;2023-04-25T00:56:56;36.10;;;13.34;;
17741;SDS011;8993;51.822;-2.268;2023-04-25T01:02:01;31.85;;;12.26;;
17741;SDS011;8993;51.822;-2.268;2023-04-25T01:07:07;37.98;;;12.12;;
17741;SDS011;8993;51.822;-2.268;2023-04-25T01:12:09;39.32;;;12.14;;
17741;SDS011;8993;51.822;-2.268;2023-04-25T01:17:13;32.32;;;10.09;;
17741;SDS011;8993;51.822;-2.268;2023-04-25T01:22:18;35.44;;;10.93;;
17741;SDS011;8993;51.822;-2.268;2023-04-25T01:27:22;33.21;;;10.89;;
17741;SDS011;8993;51.822;-2.268;2023-04-25T01:32:26;32.79;;;10.65;;
17741;SDS011;8993;51.822;-2.268;2023-04-25T01:37:30;26.59;;;10.20;;
17741;SDS011;8993;51.822;-2.268;2023-04-25T01:42:35;27.18;;;9.78;;
17741;SDS011;8993;51.822;-2.268;2023-04-25T01:47:39;22.23;;;9.11;;
17741;SDS011;8993;51.822;-2.268;2023-04-25T01:52:43;16.57;;;8.52;;
17741;SDS011;8993;51.822;-2.268;2023-04-25T01:57:47;22.68;;;9.85;;
17741;SDS011;8993;51.822;-2.268;2023-04-25T02:02:51;20.31;;;9.18;;
17741;SDS011;8993;51.822;-2.268;2023-04-25T02:07:56;31.28;;;11.22;;
17741;SDS011;8993;51.822;-2.268;2023-04-25T02:13:00;32.36;;;11.61;;
17741;SDS011;8993;51.822;-2.268;2023-04-25T02:18:04;30.08;;;10.88;;
17741;SDS011;8993;51.822;-2.268;2023-04-25T02:23:09;32.70;;;10.86;;
17741;SDS011;8993;51.822;-2.268;2023-04-25T02:28:13;34.23;;;12.36;;
17741;SDS011;8993;51.822;-2.268;2023-04-25T02:33:17;20.80;;;8.74;;
17741;SDS011;8993;51.822;-2.268;2023-04-25T02:38:21;18.12;;;8.09;;
17741;SDS011;8993;51.822;-2.268;2023-04-25T02:43:25;20.59;;;8.13;;
17741;SDS011;8993;51.822;-2.268;2023-04-25T02:48:30;22.69;;;8.21;;
17741;SDS011;8993;51.822;-2.268;2023-04-25T02:53:34;17.77;;;7.95;;
17741;SDS011;8993;51.822;-2.268;2023-04-25T02:58:38;13.02;;;6.49;;
17741;SDS011;8993;51.822;-2.268;2023-04-25T03:03:42;15.55;;;7.03;;
17741;SDS011;8993;51.822;-2.268;2023-04-25T03:08:47;14.96;;;6.92;;
17741;SDS011;8993;51.822;-2.268;2023-04-25T03:13:51;11.37;;;6.89;;
17741;SDS011;8993;51.822;-2.268;2023-04-25T03:18:55;16.93;;;7.45;;
17741;SDS011;8993;51.822;-2.268;2023-04-25T03:24:00;14.98;;;8.13;;
17741;SDS011;8993;51.822;-2.268;2023-04-25T03:29:04;18.96;;;9.87;;
17741;SDS011;8993;51.822;-2.268;2023-04-25T03:34:08;22.25;;;10.59;;
17741;SDS011;8993;51.822;-2.268;2023-04-25T03:39:12;18.65;;;10.07;;
17741;SDS011;8993;51.822;-2.268;2023-04-25T03:44:17;27.54;;;12.26;;
17741;SDS011;8993;51.822;-2.268;2023-04-25T03:49:22;33.19;;;12.83;;
17741;SDS011;8993;51.822;-2.268;2023-04-25T03:54:26;45.29;;;17.08;;
17741;SDS011;8993;51.822;-2.268;2023-04-25T03:59:30;57.54;;;20.69;;
17741;SDS011;8993;51.822;-2.268;2023-04-25T04:04:34;59.18;;;20.61;;
17741;SDS011;8993;51.822;-2.268;2023-04-25T04:09:38;34.31;;;15.28;;
17741;SDS011;8993;51.822;-2.268;2023-04-25T04:19:57;19.44;;;9.61;;
17741;SDS011;8993;51.822;-2.268;2023-04-25T04:24:51;19.08;;;8.52;;
17741;SDS011;8993;51.822;-2.268;2023-04-25T04:29:55;26.81;;;10.98;;
17741;SDS011;8993;51.822;-2.268;2023-04-25T04:34:59;42.18;;;13.68;;
17741;SDS011;8993;51.822;-2.268;2023-04-25T04:40:04;31.02;;;11.39;;
17741;SDS011;8993;51.822;-2.268;2023-04-25T04:45:09;27.68;;;11.28;;
17741;SDS011;8993;51.822;-2.268;2023-04-25T04:50:12;26.55;;;11.68;;
17741;SDS011;8993;51.822;-2.268;2023-04-25T04:55:16;33.39;;;13.08;;
17741;SDS011;8993;51.822;-2.268;2023-04-25T05:00:21;30.73;;;12.45;;
17741;SDS011;8993;51.822;-2.268;2023-04-25T05:05:25;31.57;;;14.63;;
17741;SDS011;8993;51.822;-2.268;2023-04-25T05:10:29;37.03;;;15.64;;
17741;SDS011;8993;51.822;-2.268;2023-04-25T05:15:33;21.98;;;11.11;;
17741;SDS011;8993;51.822;-2.268;2023-04-25T05:20:38;23.57;;;10.74;;
17741;SDS011;8993;51.822;-2.268;2023-04-25T05:25:42;22.98;;;10.20;;
17741;SDS011;8993;51.822;-2.268;2023-04-25T05:30:46;24.15;;;11.51;;
17741;SDS011;8993;51.822;-2.268;2023-04-25T05:35:50;23.87;;;10.92;;
17741;SDS011;8993;51.822;-2.268;2023-04-25T05:40:57;32.40;;;14.13;;
17741;SDS011;8993;51.822;-2.268;2023-04-25T05:46:01;26.85;;;12.48;;
17741;SDS011;8993;51.822;-2.268;2023-04-25T05:51:05;29.23;;;13.30;;
17741;SDS011;8993;51.822;-2.268;2023-04-25T05:56:10;31.25;;;13.11;;
17741;SDS011;8993;51.822;-2.268;2023-04-25T06:01:14;31.88;;;13.41;;
17741;SDS011;8993;51.822;-2.268;2023-04-25T06:06:18;53.48;;;20.54;;
17741;SDS011;8993;51.822;-2.268;2023-04-25T06:11:22;41.53;;;16.56;;
17741;SDS011;8993;51.822;-2.268;2023-04-25T06:16:26;56.10;;;20.38;;
17741;SDS011;8993;51.822;-2.268;2023-04-25T06:21:31;47.06;;;16.67;;
17741;SDS011;8993;51.822;-2.268;2023-04-25T06:36:41;37.26;;;15.17;;
17741;SDS011;8993;51.822;-2.268;2023-04-25T06:41:45;47.86;;;17.85;;
17741;SDS011;8993;51.822;-2.268;2023-04-25T06:46:50;40.76;;;16.26;;
17741;SDS011;8993;51.822;-2.268;2023-04-25T06:51:54;39.91;;;14.54;;
17741;SDS011;8993;51.822;-2.268;2023-04-25T06:56:58;35.51;;;12.41;;
17741;SDS011;8993;51.822;-2.268;2023-04-25T07:02:02;33.28;;;12.79;;
17741;SDS011;8993;51.822;-2.268;2023-04-25T07:07:09;33.94;;;12.43;;
17741;SDS011;8993;51.822;-2.268;2023-04-25T07:12:13;27.04;;;10.69;;
17741;SDS011;8993;51.822;-2.268;2023-04-25T07:17:17;29.24;;;12.12;;
17741;SDS011;8993;51.822;-2.268;2023-04-25T07:22:21;31.47;;;10.85;;
17741;SDS011;8993;51.822;-2.268;2023-04-25T07:27:25;31.28;;;12.67;;
17741;SDS011;8993;51.822;-2.268;2023-04-25T07:32:29;27.86;;;11.63;;
17741;SDS011;8993;51.822;-2.268;2023-04-25T07:37:34;26.82;;;8.56;;
17741;SDS011;8993;51.822;-2.268;2023-04-25T07:42:38;26.65;;;6.88;;
17741;SDS011;8993;51.822;-2.268;2023-04-25T07:47:42;21.36;;;5.65;;
17741;SDS011;8993;51.822;-2.268;2023-04-25T07:52:46;20.10;;;5.52;;
17741;SDS011;8993;51.822;-2.268;2023-04-25T07:57:51;21.81;;;5.55;;
17741;SDS011;8993;51.822;-2.268;2023-04-25T08:02:55;17.40;;;5.03;;
17741;SDS011;8993;51.822;-2.268;2023-04-25T08:07:59;21.78;;;4.57;;
17741;SDS011;8993;51.822;-2.268;2023-04-25T08:13:03;17.11;;;4.33;;
17741;SDS011;8993;51.822;-2.268;2023-04-25T08:18:09;19.72;;;4.68;;
17741;SDS011;8993;51.822;-2.268;2023-04-25T08:23:12;19.36;;;4.33;;
17741;SDS011;8993;51.822;-2.268;2023-04-25T08:28:18;17.18;;;3.64;;
17741;SDS011;8993;51.822;-2.268;2023-04-25T08:33:23;16.31;;;3.39;;
17741;SDS011;8993;51.822;-2.268;2023-04-25T08:38:28;16.44;;;2.69;;
17741;SDS011;8993;51.822;-2.268;2023-04-25T08:43:33;12.86;;;2.22;;
17741;SDS011;8993;51.822;-2.268;2023-04-25T08:48:37;12.81;;;2.37;;
17741;SDS011;8993;51.822;-2.268;2023-04-25T08:53:41;12.30;;;1.85;;
17741;SDS011;8993;51.822;-2.268;2023-04-25T09:03:50;12.28;;;2.35;;
17741;SDS011;8993;51.822;-2.268;2023-04-25T09:08:54;13.05;;;2.34;;
17741;SDS011;8993;51.822;-2.268;2023-04-25T09:19:03;10.59;;;1.98;;
17741;SDS011;8993;51.822;-2.268;2023-04-25T09:24:08;10.40;;;1.88;;
17741;SDS011;8993;51.822;-2.268;2023-04-25T09:29:13;12.09;;;1.84;;
17741;SDS011;8993;51.822;-2.268;2023-04-25T09:34:18;12.38;;;1.86;;
17741;SDS011;8993;51.822;-2.268;2023-04-25T09:39:22;11.29;;;1.65;;
17741;SDS011;8993;51.822;-2.268;2023-04-25T09:44:28;7.67;;;1.37;;
17741;SDS011;8993;51.822;-2.268;2023-04-25T09:49:32;7.35;;;1.16;;
17741;SDS011;8993;51.822;-2.268;2023-04-25T09:54:37;6.98;;;1.11;;
17741;SDS011;8993;51.822;-2.268;2023-04-25T09:59:43;6.83;;;0.99;;
17741;SDS011;8993;51.822;-2.268;2023-04-25T10:04:48;6.04;;;0.79;;
17741;SDS011;8993;51.822;-2.268;2023-04-25T10:09:54;6.15;;;0.90;;
17741;SDS011;8993;51.822;-2.268;2023-04-25T10:14:57;5.96;;;1.04;;
17741;SDS011;8993;51.822;-2.268;2023-04-25T10:20:02;7.16;;;0.98;;
17741;SDS011;8993;51.822;-2.268;2023-04-25T10:25:06;7.01;;;1.09;;
17741;SDS011;8993;51.822;-2.268;2023-04-25T10:30:13;4.45;;;0.96;;
17741;SDS011;8993;51.822;-2.268;2023-04-25T10:35:15;7.25;;;0.96;;
17741;SDS011;8993;51.822;-2.268;2023-04-25T10:40:21;7.48;;;1.05;;
17741;SDS011;8993;51.822;-2.268;2023-04-25T10:45:25;6.55;;;1.11;;
17741;SDS011;8993;51.822;-2.268;2023-04-25T10:50:36;4.35;;;0.78;;
17741;SDS011;8993;51.822;-2.268;2023-04-25T10:55:48;3.85;;;0.84;;
17741;SDS011;8993;51.822;-2.268;2023-04-25T11:00:39;5.32;;;1.01;;
17741;SDS011;8993;51.822;-2.268;2023-04-25T11:05:43;5.96;;;0.82;;
17741;SDS011;8993;51.822;-2.268;2023-04-25T11:10:48;5.16;;;0.97;;
17741;SDS011;8993;51.822;-2.268;2023-04-25T11:15:53;4.06;;;0.89;;
17741;SDS011;8993;51.822;-2.268;2023-04-25T11:20:58;4.85;;;0.90;;
17741;SDS011;8993;51.822;-2.268;2023-04-25T11:26:02;5.18;;;0.97;;
17741;SDS011;8993;51.822;-2.268;2023-04-25T11:31:07;5.03;;;0.92;;
17741;SDS011;8993;51.822;-2.268;2023-04-25T11:36:11;5.19;;;0.99;;
17741;SDS011;8993;51.822;-2.268;2023-04-25T11:41:16;4.72;;;0.84;;
17741;SDS011;8993;51.822;-2.268;2023-04-25T11:46:20;4.61;;;0.98;;
17741;SDS011;8993;51.822;-2.268;2023-04-25T11:51:25;6.31;;;1.16;;
17741;SDS011;8993;51.822;-2.268;2023-04-25T11:56:29;5.83;;;1.09;;
17741;SDS011;8993;51.822;-2.268;2023-04-25T12:01:35;6.20;;;1.10;;
17741;SDS011;8993;51.822;-2.268;2023-04-25T12:06:39;5.55;;;1.01;;
17741;SDS011;8993;51.822;-2.268;2023-04-25T12:11:43;4.20;;;0.99;;
17741;SDS011;8993;51.822;-2.268;2023-04-25T12:16:50;5.57;;;1.14;;
17741;SDS011;8993;51.822;-2.268;2023-04-25T12:21:55;5.86;;;1.17;;
17741;SDS011;8993;51.822;-2.268;2023-04-25T12:27:00;6.52;;;1.12;;
17741;SDS011;8993;51.822;-2.268;2023-04-25T12:32:04;5.32;;;1.07;;
17741;SDS011;8993;51.822;-2.268;2023-04-25T12:37:09;5.22;;;1.16;;
17741;SDS011;8993;51.822;-2.268;2023-04-25T12:42:13;4.99;;;1.13;;
17741;SDS011;8993;51.822;-2.268;2023-04-25T12:47:17;7.01;;;1.83;;
17741;SDS011;8993;51.822;-2.268;2023-04-25T12:52:22;5.08;;;1.37;;
17741;SDS011;8993;51.822;-2.268;2023-04-25T12:57:29;6.89;;;1.89;;
17741;SDS011;8993;51.822;-2.268;2023-04-25T13:02:34;8.61;;;1.54;;
17741;SDS011;8993;51.822;-2.268;2023-04-25T13:07:39;6.86;;;1.55;;
17741;SDS011;8993;51.822;-2.268;2023-04-25T13:12:44;6.17;;;1.14;;
17741;SDS011;8993;51.822;-2.268;2023-04-25T13:17:48;5.29;;;1.13;;
17741;SDS011;8993;51.822;-2.268;2023-04-25T13:22:53;4.61;;;1.07;;
17741;SDS011;8993;51.822;-2.268;2023-04-25T13:27:57;6.03;;;1.07;;
17741;SDS011;8993;51.822;-2.268;2023-04-25T13:33:01;5.28;;;1.10;;
17741;SDS011;8993;51.822;-2.268;2023-04-25T13:38:06;3.90;;;1.12;;
17741;SDS011;8993;51.822;-2.268;2023-04-25T13:43:10;5.18;;;1.15;;
17741;SDS011;8993;51.822;-2.268;2023-04-25T13:48:16;6.55;;;1.17;;
17741;SDS011;8993;51.822;-2.268;2023-04-25T13:53:19;6.10;;;1.38;;
17741;SDS011;8993;51.822;-2.268;2023-04-25T13:58:23;5.69;;;1.43;;
17741;SDS011;8993;51.822;-2.268;2023-04-25T14:03:28;5.12;;;1.08;;
17741;SDS011;8993;51.822;-2.268;2023-04-25T14:08:32;5.06;;;1.20;;
17741;SDS011;8993;51.822;-2.268;2023-04-25T14:13:37;5.74;;;1.14;;
17741;SDS011;8993;51.822;-2.268;2023-04-25T14:18:42;4.62;;;1.22;;
17741;SDS011;8993;51.822;-2.268;2023-04-25T14:23:46;6.09;;;1.21;;
17741;SDS011;8993;51.822;-2.268;2023-04-25T14:28:51;6.73;;;1.26;;
17741;SDS011;8993;51.822;-2.268;2023-04-25T14:33:55;4.94;;;1.20;;
17741;SDS011;8993;51.822;-2.268;2023-04-25T14:39:00;6.10;;;1.37;;
17741;SDS011;8993;51.822;-2.268;2023-04-25T14:44:05;7.14;;;1.69;;
17741;SDS011;8993;51.822;-2.268;2023-04-25T14:49:10;7.43;;;1.54;;
17741;SDS011;8993;51.822;-2.268;2023-04-25T14:54:15;5.03;;;1.58;;
17741;SDS011;8993;51.822;-2.268;2023-04-25T14:59:20;4.74;;;1.70;;
17741;SDS011;8993;51.822;-2.268;2023-04-25T15:04:24;4.02;;;1.32;;
17741;SDS011;8993;51.822;-2.268;2023-04-25T15:09:29;4.37;;;1.18;;
17741;SDS011;8993;51.822;-2.268;2023-04-25T15:14:33;3.56;;;1.06;;
17741;SDS011;8993;51.822;-2.268;2023-04-25T15:19:38;6.33;;;1.20;;
17741;SDS011;8993;51.822;-2.268;2023-04-25T15:24:43;4.73;;;1.23;;
17741;SDS011;8993;51.822;-2.268;2023-04-25T15:29:47;3.78;;;1.06;;
17741;SDS011;8993;51.822;-2.268;2023-04-25T15:34:52;4.55;;;1.07;;
17741;SDS011;8993;51.822;-2.268;2023-04-25T15:40:00;4.20;;;1.02;;
17741;SDS011;8993;51.822;-2.268;2023-04-25T15:45:03;4.64;;;1.14;;
17741;SDS011;8993;51.822;-2.268;2023-04-25T15:50:08;5.07;;;1.26;;
17741;SDS011;8993;51.822;-2.268;2023-04-25T15:55:12;5.51;;;1.37;;
17741;SDS011;8993;51.822;-2.268;2023-04-25T16:00:17;6.02;;;1.45;;
17741;SDS011;8993;51.822;-2.268;2023-04-25T16:05:20;5.16;;;1.44;;
17741;SDS011;8993;51.822;-2.268;2023-04-25T16:10:25;4.53;;;1.37;;
17741;SDS011;8993;51.822;-2.268;2023-04-25T16:15:29;7.24;;;1.62;;
17741;SDS011;8993;51.822;-2.268;2023-04-25T16:20:35;6.70;;;1.59;;
17741;SDS011;8993;51.822;-2.268;2023-04-25T16:25:38;6.32;;;1.40;;
17741;SDS011;8993;51.822;-2.268;2023-04-25T16:30:43;5.04;;;1.27;;
17741;SDS011;8993;51.822;-2.268;2023-04-25T16:35:47;5.00;;;1.32;;
17741;SDS011;8993;51.822;-2.268;2023-04-25T16:40:55;6.97;;;1.35;;
17741;SDS011;8993;51.822;-2.268;2023-04-25T16:46:03;4.47;;;1.24;;
17741;SDS011;8993;51.822;-2.268;2023-04-25T16:51:07;5.82;;;1.43;;
17741;SDS011;8993;51.822;-2.268;2023-04-25T16:56:11;6.55;;;1.33;;
17741;SDS011;8993;51.822;-2.268;2023-04-25T17:01:15;5.47;;;1.34;;
17741;SDS011;8993;51.822;-2.268;2023-04-25T17:06:20;5.79;;;1.29;;
17741;SDS011;8993;51.822;-2.268;2023-04-25T17:11:25;7.19;;;1.70;;
17741;SDS011;8993;51.822;-2.268;2023-04-25T17:16:33;5.11;;;1.39;;
17741;SDS011;8993;51.822;-2.268;2023-04-25T17:21:34;6.69;;;2.46;;
17741;SDS011;8993;51.822;-2.268;2023-04-25T17:26:40;6.75;;;1.94;;
17741;SDS011;8993;51.822;-2.268;2023-04-25T17:31:46;5.42;;;1.33;;
17741;SDS011;8993;51.822;-2.268;2023-04-25T17:36:51;5.81;;;1.34;;
17741;SDS011;8993;51.822;-2.268;2023-04-25T17:41:55;5.72;;;1.35;;
17741;SDS011;8993;51.822;-2.268;2023-04-25T17:46:59;7.05;;;1.40;;
17741;SDS011;8993;51.822;-2.268;2023-04-25T17:52:06;5.48;;;1.37;;
17741;SDS011;8993;51.822;-2.268;2023-04-25T17:57:11;6.18;;;1.35;;
17741;SDS011;8993;51.822;-2.268;2023-04-25T18:02:15;5.40;;;1.37;;
17741;SDS011;8993;51.822;-2.268;2023-04-25T18:07:20;6.76;;;1.49;;
17741;SDS011;8993;51.822;-2.268;2023-04-25T18:12:24;4.93;;;1.29;;
17741;SDS011;8993;51.822;-2.268;2023-04-25T18:17:29;7.18;;;1.29;;
17741;SDS011;8993;51.822;-2.268;2023-04-25T18:22:35;7.05;;;1.40;;
17741;SDS011;8993;51.822;-2.268;2023-04-25T18:27:38;6.20;;;1.38;;
17741;SDS011;8993;51.822;-2.268;2023-04-25T18:32:42;6.04;;;1.36;;
17741;SDS011;8993;51.822;-2.268;2023-04-25T18:37:46;4.98;;;1.35;;
17741;SDS011;8993;51.822;-2.268;2023-04-25T18:42:51;5.24;;;1.29;;
17741;SDS011;8993;51.822;-2.268;2023-04-25T18:47:55;5.71;;;1.13;;
17741;SDS011;8993;51.822;-2.268;2023-04-25T18:53:00;5.53;;;1.40;;
17741;SDS011;8993;51.822;-2.268;2023-04-25T18:58:05;5.73;;;1.40;;
17741;SDS011;8993;51.822;-2.268;2023-04-25T19:03:09;7.72;;;2.86;;
17741;SDS011;8993;51.822;-2.268;2023-04-25T19:08:14;7.05;;;1.59;;
17741;SDS011;8993;51.822;-2.268;2023-04-25T19:13:19;7.13;;;1.77;;
17741;SDS011;8993;51.822;-2.268;2023-04-25T19:18:23;5.65;;;1.64;;
17741;SDS011;8993;51.822;-2.268;2023-04-25T19:23:27;6.76;;;1.84;;
17741;SDS011;8993;51.822;-2.268;2023-04-25T19:28:32;6.14;;;1.64;;
17741;SDS011;8993;51.822;-2.268;2023-04-25T19:33:36;5.57;;;1.55;;
17741;SDS011;8993;51.822;-2.268;2023-04-25T19:38:40;4.59;;;1.60;;
17741;SDS011;8993;51.822;-2.268;2023-04-25T19:43:45;7.37;;;2.05;;
17741;SDS011;8993;51.822;-2.268;2023-04-25T19:48:49;6.09;;;1.79;;
17741;SDS011;8993;51.822;-2.268;2023-04-25T19:53:56;6.16;;;1.92;;
17741;SDS011;8993;51.822;-2.268;2023-04-25T19:59:01;8.23;;;2.46;;
17741;SDS011;8993;51.822;-2.268;2023-04-25T20:04:06;7.68;;;2.65;;
17741;SDS011;8993;51.822;-2.268;2023-04-25T20:09:10;7.94;;;2.55;;
17741;SDS011;8993;51.822;-2.268;2023-04-25T20:14:14;7.32;;;2.07;;
17741;SDS011;8993;51.822;-2.268;2023-04-25T20:19:19;6.17;;;2.12;;
17741;SDS011;8993;51.822;-2.268;2023-04-25T20:24:24;9.34;;;2.53;;
17741;SDS011;8993;51.822;-2.268;2023-04-25T20:29:30;6.97;;;2.02;;
17741;SDS011;8993;51.822;-2.268;2023-04-25T20:34:35;5.29;;;1.89;;
17741;SDS011;8993;51.822;-2.268;2023-04-25T20:39:39;7.36;;;2.15;;
17741;SDS011;8993;51.822;-2.268;2023-04-25T20:44:44;7.91;;;2.50;;
17741;SDS011;8993;51.822;-2.268;2023-04-25T20:49:48;7.86;;;2.84;;
17741;SDS011;8993;51.822;-2.268;2023-04-25T20:54:53;6.93;;;2.23;;
17741;SDS011;8993;51.822;-2.268;2023-04-25T20:59:57;6.85;;;2.43;;
17741;SDS011;8993;51.822;-2.268;2023-04-25T21:05:05;6.48;;;2.18;;
17741;SDS011;8993;51.822;-2.268;2023-04-25T21:10:09;7.95;;;2.62;;
17741;SDS011;8993;51.822;-2.268;2023-04-25T21:15:13;6.19;;;2.29;;
17741;SDS011;8993;51.822;-2.268;2023-04-25T21:20:18;6.39;;;2.61;;
17741;SDS011;8993;51.822;-2.268;2023-04-25T21:25:25;6.15;;;2.46;;
17741;SDS011;8993;51.822;-2.268;2023-04-25T21:30:31;7.57;;;2.90;;
17741;SDS011;8993;51.822;-2.268;2023-04-25T21:35:36;5.81;;;2.76;;
17741;SDS011;8993;51.822;-2.268;2023-04-25T21:40:41;7.15;;;3.10;;
17741;SDS011;8993;51.822;-2.268;2023-04-25T21:45:46;8.35;;;3.17;;
17741;SDS011;8993;51.822;-2.268;2023-04-25T21:50:50;9.01;;;4.01;;
17741;SDS011;8993;51.822;-2.268;2023-04-25T21:55:55;11.86;;;5.32;;
17741;SDS011;8993;51.822;-2.268;2023-04-25T22:01:02;10.71;;;4.84;;
17741;SDS011;8993;51.822;-2.268;2023-04-25T22:06:06;11.83;;;5.12;;
17741;SDS011;8993;51.822;-2.268;2023-04-25T22:11:13;9.83;;;4.65;;
17741;SDS011;8993;51.822;-2.268;2023-04-25T22:16:20;9.97;;;4.17;;
17741;SDS011;8993;51.822;-2.268;2023-04-25T22:21:25;8.84;;;3.85;;
17741;SDS011;8993;51.822;-2.268;2023-04-25T22:26:30;8.81;;;3.87;;
17741;SDS011;8993;51.822;-2.268;2023-04-25T22:31:34;10.25;;;3.71;;
17741;SDS011;8993;51.822;-2.268;2023-04-25T22:36:38;8.32;;;3.59;;
17741;SDS011;8993;51.822;-2.268;2023-04-25T22:41:43;8.11;;;3.37;;
17741;SDS011;8993;51.822;-2.268;2023-04-25T22:46:48;9.53;;;3.52;;
17741;SDS011;8993;51.822;-2.268;2023-04-25T22:51:52;10.30;;;3.40;;
17741;SDS011;8993;51.822;-2.268;2023-04-25T22:56:59;9.24;;;3.40;;
17741;SDS011;8993;51.822;-2.268;2023-04-25T23:02:03;7.78;;;2.70;;
17741;SDS011;8993;51.822;-2.268;2023-04-25T23:07:08;8.44;;;2.60;;
17741;SDS011;8993;51.822;-2.268;2023-04-25T23:12:12;9.60;;;3.14;;
17741;SDS011;8993;51.822;-2.268;2023-04-25T23:17:19;11.16;;;4.12;;
17741;SDS011;8993;51.822;-2.268;2023-04-25T23:22:23;11.39;;;3.96;;
17741;SDS011;8993;51.822;-2.268;2023-04-25T23:27:28;8.06;;;3.24;;
17741;SDS011;8993;51.822;-2.268;2023-04-25T23:32:32;9.97;;;3.42;;
17741;SDS011;8993;51.822;-2.268;2023-04-25T23:37:37;7.74;;;2.94;;
17741;SDS011;8993;51.822;-2.268;2023-04-25T23:42:41;6.50;;;2.61;;
17741;SDS011;8993;51.822;-2.268;2023-04-25T23:47:46;7.42;;;2.45;;
17741;SDS011;8993;51.822;-2.268;2023-04-25T23:52:50;5.92;;;2.29;;
17741;SDS011;8993;51.822;-2.268;2023-04-25T23:57:55;9.28;;;2.72;;
